createdAt,value
2022-10-17T00:00:50.497Z,14.80
2022-10-17T00:01:51.966Z,14.80
2022-10-17T00:02:57.076Z,14.80
2022-10-17T00:03:58.711Z,14.90
2022-10-17T00:05:00.311Z,14.90
2022-10-17T00:06:07.317Z,15.00
2022-10-17T00:07:08.960Z,14.90
2022-10-17T00:08:12.434Z,14.90
2022-10-17T00:09:13.839Z,14.90
2022-10-17T00:10:15.309Z,14.80
2022-10-17T00:11:21.060Z,14.80
2022-10-17T00:12:22.436Z,14.80
2022-10-17T00:13:24.628Z,14.80
2022-10-17T00:14:26.135Z,14.70
2022-10-17T00:15:27.504Z,14.70
2022-10-17T00:16:32.749Z,14.80
2022-10-17T00:17:34.588Z,14.80
2022-10-17T00:18:36.071Z,14.80
2022-10-17T00:19:37.546Z,14.80
2022-10-17T00:20:38.930Z,14.80
2022-10-17T00:21:40.288Z,14.80
2022-10-17T00:22:41.742Z,14.80
2022-10-17T00:23:43.113Z,14.80
2022-10-17T00:24:44.661Z,14.80
2022-10-17T00:25:46.084Z,14.90
2022-10-17T00:26:47.590Z,14.80
2022-10-17T00:27:49.001Z,14.80
2022-10-17T00:28:51.993Z,14.80
2022-10-17T00:29:53.691Z,14.80
2022-10-17T00:31:03.886Z,14.80
2022-10-17T00:32:06.050Z,14.80
2022-10-17T00:33:07.584Z,14.80
2022-10-17T00:34:09.053Z,14.80
2022-10-17T00:35:10.495Z,14.80
2022-10-17T00:36:17.221Z,14.70
2022-10-17T00:37:18.644Z,14.70
2022-10-17T00:38:20.012Z,14.70
2022-10-17T00:39:21.890Z,14.80
2022-10-17T00:40:23.620Z,14.80
2022-10-17T00:41:29.279Z,14.80
2022-10-17T00:42:31.001Z,14.80
2022-10-17T00:43:59.014Z,14.70
2022-10-17T00:45:26.438Z,14.70
2022-10-17T00:46:31.087Z,14.70
2022-10-17T00:47:35.451Z,14.70
2022-10-17T00:48:36.851Z,14.80
2022-10-17T00:49:39.650Z,14.80
2022-10-17T00:50:44.523Z,14.80
2022-10-17T00:52:02.908Z,14.80
2022-10-17T00:53:06.352Z,14.80
2022-10-17T00:54:09.585Z,14.80
2022-10-17T00:55:16.625Z,14.80
2022-10-17T00:56:20.096Z,14.80
2022-10-17T00:57:21.770Z,14.80
2022-10-17T00:58:25.007Z,14.80
2022-10-17T00:59:26.924Z,14.80
2022-10-17T01:00:28.474Z,14.70
2022-10-17T01:01:30.096Z,14.70
2022-10-17T01:02:40.021Z,14.70
2022-10-17T01:03:41.626Z,14.70
2022-10-17T01:04:46.399Z,14.70
2022-10-17T01:05:47.836Z,14.70
2022-10-17T01:06:49.192Z,14.70
2022-10-17T01:07:53.316Z,14.70
2022-10-17T01:08:54.995Z,14.70
2022-10-17T01:09:56.903Z,14.70
2022-10-17T01:11:22.014Z,14.70
2022-10-17T01:12:29.088Z,14.70
2022-10-17T01:13:46.583Z,14.70
2022-10-17T01:15:17.581Z,14.70
2022-10-17T01:16:44.587Z,14.70
2022-10-17T01:18:04.718Z,14.70
2022-10-17T01:19:44.047Z,14.70
2022-10-17T01:21:00.350Z,14.70
2022-10-17T01:22:34.800Z,14.70
2022-10-17T01:24:18.239Z,14.70
2022-10-17T01:25:57.297Z,14.70
2022-10-17T01:27:25.954Z,14.60
2022-10-17T01:28:45.850Z,14.60
2022-10-17T01:29:47.512Z,14.60
2022-10-17T01:31:07.347Z,14.70
2022-10-17T01:32:18.391Z,14.60
2022-10-17T01:33:44.004Z,14.60
2022-10-17T01:35:19.450Z,14.60
2022-10-17T01:36:29.316Z,14.60
2022-10-17T01:37:45.164Z,14.60
2022-10-17T01:38:51.861Z,14.60
2022-10-17T01:40:08.418Z,14.60
2022-10-17T01:41:20.135Z,14.60
2022-10-17T01:42:36.742Z,14.60
2022-10-17T01:43:44.575Z,14.60
2022-10-17T01:45:01.885Z,14.50
2022-10-17T01:46:15.775Z,14.70
2022-10-17T01:47:21.537Z,14.70
2022-10-17T01:48:27.344Z,14.60
2022-10-17T01:49:31.699Z,14.60
2022-10-17T01:50:38.174Z,14.60
2022-10-17T01:51:43.060Z,14.60
2022-10-17T01:52:57.123Z,14.60
2022-10-17T01:54:03.189Z,14.60
2022-10-17T01:55:08.840Z,14.60
2022-10-17T01:56:14.202Z,14.60
2022-10-17T01:57:43.856Z,14.60
2022-10-17T01:58:52.979Z,14.60
2022-10-17T01:59:56.578Z,14.60
2022-10-17T02:01:02.952Z,14.60
2022-10-17T02:02:07.678Z,14.60
2022-10-17T02:03:14.067Z,14.60
2022-10-17T02:04:16.437Z,14.60
2022-10-17T02:05:20.583Z,14.60
2022-10-17T02:06:23.222Z,14.50
2022-10-17T02:07:25.144Z,14.50
2022-10-17T02:08:39.948Z,14.50
2022-10-17T02:09:41.758Z,14.50
2022-10-17T02:11:05.791Z,14.50
2022-10-17T02:12:32.760Z,14.50
2022-10-17T02:13:46.034Z,14.40
2022-10-17T02:14:54.714Z,14.50
2022-10-17T02:16:20.688Z,14.50
2022-10-17T02:17:30.952Z,14.50
2022-10-17T02:18:52.741Z,14.50
2022-10-17T02:20:19.308Z,14.50
2022-10-17T02:21:41.846Z,14.50
2022-10-17T02:23:04.115Z,14.40
2022-10-17T02:24:35.063Z,14.40
2022-10-17T02:25:59.332Z,14.40
2022-10-17T02:27:15.197Z,14.40
2022-10-17T02:28:39.696Z,14.40
2022-10-17T02:29:58.979Z,14.40
2022-10-17T02:31:22.721Z,14.40
2022-10-17T02:32:54.931Z,14.40
2022-10-17T02:34:07.285Z,14.40
2022-10-17T02:35:13.123Z,14.40
2022-10-17T02:36:19.749Z,14.40
2022-10-17T02:37:27.493Z,14.40
2022-10-17T02:38:30.682Z,14.40
2022-10-17T02:39:34.848Z,14.40
2022-10-17T02:40:37.270Z,14.30
2022-10-17T02:41:41.001Z,14.30
2022-10-17T02:42:45.310Z,14.40
2022-10-17T02:43:50.030Z,14.40
2022-10-17T02:44:53.489Z,14.40
2022-10-17T02:45:55.881Z,14.40
2022-10-17T02:47:07.193Z,14.40
2022-10-17T02:48:18.768Z,14.40
2022-10-17T02:49:28.290Z,14.50
2022-10-17T02:50:52.445Z,14.40
2022-10-17T02:52:08.275Z,14.40
2022-10-17T02:53:19.952Z,14.40
2022-10-17T02:55:15.376Z,14.30
2022-10-17T02:56:19.193Z,14.30
2022-10-17T02:57:52.992Z,14.30
2022-10-17T02:58:58.619Z,14.30
2022-10-17T03:00:02.111Z,14.40
2022-10-17T03:01:04.947Z,14.40
2022-10-17T03:02:07.000Z,14.40
2022-10-17T03:03:24.941Z,14.40
2022-10-17T03:04:26.542Z,14.40
2022-10-17T03:05:29.668Z,14.30
2022-10-17T03:06:31.035Z,14.30
2022-10-17T03:07:32.461Z,14.30
2022-10-17T03:08:35.488Z,14.30
2022-10-17T03:09:36.966Z,14.30
2022-10-17T03:10:38.404Z,14.30
2022-10-17T03:11:40.497Z,14.30
2022-10-17T03:12:43.205Z,14.30
2022-10-17T03:13:45.409Z,14.30
2022-10-17T03:14:46.835Z,14.30
2022-10-17T03:15:48.271Z,14.30
2022-10-17T03:16:49.680Z,14.30
2022-10-17T03:17:52.662Z,14.30
2022-10-17T03:18:54.142Z,14.30
2022-10-17T03:19:55.953Z,14.30
2022-10-17T03:20:57.371Z,14.30
2022-10-17T03:21:58.803Z,14.30
2022-10-17T03:23:00.537Z,14.30
2022-10-17T03:24:03.108Z,14.20
2022-10-17T03:25:04.869Z,14.30
2022-10-17T03:26:09.453Z,14.20
2022-10-17T03:27:10.987Z,14.20
2022-10-17T03:28:12.674Z,14.20
2022-10-17T03:29:14.513Z,14.20
2022-10-17T03:30:16.263Z,14.20
2022-10-17T03:31:17.834Z,14.20
2022-10-17T03:32:20.821Z,14.10
2022-10-17T03:33:22.831Z,14.10
2022-10-17T03:34:24.469Z,14.20
2022-10-17T03:35:27.342Z,14.20
2022-10-17T03:36:29.161Z,14.20
2022-10-17T03:37:31.154Z,14.20
2022-10-17T03:38:34.491Z,14.10
2022-10-17T03:39:35.916Z,14.10
2022-10-17T03:40:37.959Z,14.10
2022-10-17T03:41:39.534Z,14.20
2022-10-17T03:42:41.355Z,14.20
2022-10-17T03:43:42.840Z,14.10
2022-10-17T03:44:44.308Z,14.10
2022-10-17T03:45:45.726Z,14.10
2022-10-17T03:46:47.109Z,14.10
2022-10-17T03:47:49.478Z,14.00
2022-10-17T03:48:50.908Z,14.10
2022-10-17T03:49:53.734Z,14.00
2022-10-17T03:51:09.605Z,14.00
2022-10-17T03:52:21.233Z,14.00
2022-10-17T03:53:22.693Z,14.00
2022-10-17T03:54:24.372Z,14.00
2022-10-17T03:55:25.913Z,14.00
2022-10-17T03:56:27.780Z,14.00
2022-10-17T03:57:37.079Z,14.00
2022-10-17T03:58:40.483Z,14.00
2022-10-17T03:59:42.151Z,14.00
2022-10-17T04:00:49.211Z,14.00
2022-10-17T04:01:50.972Z,14.00
2022-10-17T04:02:53.776Z,14.00
2022-10-17T04:03:56.482Z,14.00
2022-10-17T04:04:58.027Z,14.00
2022-10-17T04:06:00.953Z,14.00
2022-10-17T04:07:03.550Z,14.00
2022-10-17T04:08:05.449Z,14.00
2022-10-17T04:09:29.484Z,14.00
2022-10-17T04:10:39.656Z,14.00
2022-10-17T04:11:41.385Z,14.00
2022-10-17T04:12:42.902Z,14.00
2022-10-17T04:13:45.413Z,14.00
2022-10-17T04:14:46.810Z,14.00
2022-10-17T04:16:04.698Z,14.00
2022-10-17T04:17:06.297Z,14.00
2022-10-17T04:18:09.236Z,14.00
2022-10-17T04:19:12.813Z,14.00
2022-10-17T04:20:17.485Z,14.00
2022-10-17T04:21:19.336Z,14.00
2022-10-17T04:22:20.918Z,14.00
2022-10-17T04:23:23.064Z,13.90
2022-10-17T04:24:28.842Z,14.00
2022-10-17T04:25:40.002Z,13.90
2022-10-17T04:26:41.831Z,13.90
2022-10-17T04:27:43.488Z,13.90
2022-10-17T04:28:44.911Z,14.00
2022-10-17T04:29:46.579Z,13.90
2022-10-17T04:31:02.561Z,14.00
2022-10-17T04:32:10.087Z,14.00
2022-10-17T04:33:20.597Z,13.90
2022-10-17T04:34:22.153Z,13.90
2022-10-17T04:35:23.674Z,13.90
2022-10-17T04:36:32.137Z,13.90
2022-10-17T04:37:33.964Z,13.90
2022-10-17T04:38:41.347Z,13.90
2022-10-17T04:39:45.117Z,13.90
2022-10-17T04:40:46.811Z,13.90
2022-10-17T04:41:48.386Z,13.90
2022-10-17T04:42:50.057Z,13.90
2022-10-17T04:43:54.917Z,13.90
2022-10-17T04:44:56.534Z,13.90
2022-10-17T04:46:01.321Z,13.90
2022-10-17T04:47:03.135Z,13.90
2022-10-17T04:48:05.070Z,13.90
2022-10-17T04:49:06.521Z,13.80
2022-10-17T04:50:08.542Z,13.80
2022-10-17T04:51:13.862Z,13.80
2022-10-17T04:52:28.919Z,13.80
2022-10-17T04:53:38.058Z,13.80
2022-10-17T04:54:39.697Z,13.80
2022-10-17T04:55:43.934Z,13.80
2022-10-17T04:56:47.092Z,13.80
2022-10-17T04:57:48.539Z,13.80
2022-10-17T04:58:55.160Z,13.80
2022-10-17T04:59:57.284Z,13.70
2022-10-17T05:01:22.871Z,13.80
2022-10-17T05:02:27.574Z,13.80
2022-10-17T05:03:29.882Z,13.70
2022-10-17T05:04:31.517Z,13.70
2022-10-17T05:05:33.052Z,13.70
2022-10-17T05:06:38.066Z,13.70
2022-10-17T05:07:58.100Z,13.80
2022-10-17T05:09:04.487Z,13.80
2022-10-17T05:10:06.481Z,13.80
2022-10-17T05:11:16.909Z,13.80
2022-10-17T05:12:18.304Z,13.70
2022-10-17T05:13:20.663Z,13.70
2022-10-17T05:14:22.502Z,13.70
2022-10-17T05:15:24.563Z,13.70
2022-10-17T05:16:29.011Z,13.70
2022-10-17T05:17:30.770Z,13.70
2022-10-17T05:18:32.184Z,13.70
2022-10-17T05:19:33.574Z,13.60
2022-10-17T05:20:35.429Z,13.60
2022-10-17T05:21:37.461Z,13.60
2022-10-17T05:22:42.093Z,13.60
2022-10-17T05:23:46.090Z,13.60
2022-10-17T05:24:47.713Z,13.60
2022-10-17T05:25:54.634Z,13.60
2022-10-17T05:26:58.298Z,13.60
2022-10-17T05:27:59.825Z,13.60
2022-10-17T05:29:04.643Z,13.60
2022-10-17T05:30:10.626Z,13.60
2022-10-17T05:31:13.606Z,13.70
2022-10-17T05:32:17.042Z,13.60
2022-10-17T05:33:18.643Z,13.60
2022-10-17T05:34:20.385Z,13.60
2022-10-17T05:35:22.382Z,13.60
2022-10-17T05:36:23.831Z,13.60
2022-10-17T05:37:26.091Z,13.60
2022-10-17T05:38:30.357Z,13.60
2022-10-17T05:39:31.885Z,13.60
2022-10-17T05:40:34.928Z,13.60
2022-10-17T05:41:37.126Z,13.60
2022-10-17T05:43:43.213Z,13.70
2022-10-17T05:44:46.057Z,13.70
2022-10-17T05:45:48.929Z,13.70
2022-10-17T05:46:54.556Z,13.70
2022-10-17T05:47:56.235Z,13.70
2022-10-17T05:48:58.035Z,13.70
2022-10-17T05:49:59.390Z,13.70
2022-10-17T05:51:09.881Z,13.70
2022-10-17T05:52:11.739Z,13.60
2022-10-17T05:53:32.071Z,13.60
2022-10-17T05:54:37.048Z,13.70
2022-10-17T05:55:38.612Z,13.70
2022-10-17T05:56:40.257Z,13.70
2022-10-17T05:57:42.089Z,13.60
2022-10-17T05:58:50.904Z,13.60
2022-10-17T06:00:17.054Z,13.60
2022-10-17T06:01:25.562Z,13.60
2022-10-17T06:02:28.271Z,13.60
2022-10-17T06:03:31.616Z,13.60
2022-10-17T06:04:33.999Z,13.60
2022-10-17T06:05:36.762Z,13.60
2022-10-17T06:06:39.928Z,13.60
2022-10-17T06:07:41.604Z,13.60
2022-10-17T06:08:44.122Z,13.60
2022-10-17T06:09:49.347Z,13.60
2022-10-17T06:10:51.354Z,13.60
2022-10-17T06:11:52.742Z,13.60
2022-10-17T06:12:54.766Z,13.60
2022-10-17T06:13:56.262Z,13.60
2022-10-17T06:15:00.079Z,13.60
2022-10-17T06:16:01.940Z,13.70
2022-10-17T06:17:03.580Z,13.80
2022-10-17T06:18:05.606Z,13.70
2022-10-17T06:19:07.054Z,13.70
2022-10-17T06:20:09.256Z,13.70
2022-10-17T06:21:12.070Z,13.70
2022-10-17T06:22:18.471Z,13.70
2022-10-17T06:23:21.210Z,13.70
2022-10-17T06:24:37.523Z,13.70
2022-10-17T06:25:40.122Z,13.80
2022-10-17T06:26:41.642Z,13.80
2022-10-17T06:27:44.487Z,13.80
2022-10-17T06:28:46.733Z,13.80
2022-10-17T06:29:48.480Z,13.80
2022-10-17T06:30:50.177Z,13.80
2022-10-17T06:31:51.784Z,13.80
2022-10-17T06:32:54.660Z,13.80
2022-10-17T06:33:56.191Z,13.80
2022-10-17T06:34:57.622Z,13.80
2022-10-17T06:35:59.943Z,13.80
2022-10-17T06:37:01.344Z,13.90
2022-10-17T06:38:04.604Z,13.90
2022-10-17T06:39:07.116Z,13.90
2022-10-17T06:40:31.774Z,13.80
2022-10-17T06:41:33.993Z,13.90
2022-10-17T06:42:39.722Z,13.90
2022-10-17T06:43:46.309Z,13.80
2022-10-17T06:45:07.133Z,13.90
2022-10-17T06:46:39.125Z,13.90
2022-10-17T06:47:43.049Z,13.90
2022-10-17T06:49:22.870Z,13.90
2022-10-17T06:50:26.605Z,13.90
2022-10-17T06:51:45.389Z,13.90
2022-10-17T06:52:52.058Z,13.90
2022-10-17T06:54:11.794Z,14.00
2022-10-17T06:55:32.631Z,14.00
2022-10-17T06:56:57.217Z,14.00
2022-10-17T06:58:17.555Z,14.00
2022-10-17T06:59:42.833Z,14.10
2022-10-17T07:00:49.438Z,14.10
2022-10-17T07:01:51.913Z,14.10
2022-10-17T07:02:53.339Z,14.10
2022-10-17T07:03:55.417Z,14.10
2022-10-17T07:04:57.533Z,14.20
2022-10-17T07:05:59.122Z,14.30
2022-10-17T07:07:03.036Z,14.30
2022-10-17T07:08:05.696Z,14.30
2022-10-17T07:09:07.334Z,14.30
2022-10-17T07:10:11.331Z,14.30
2022-10-17T07:11:16.704Z,14.30
2022-10-17T07:12:18.251Z,14.30
2022-10-17T07:13:20.904Z,14.40
2022-10-17T07:14:22.402Z,14.40
2022-10-17T07:15:24.085Z,14.40
2022-10-17T07:16:25.432Z,14.50
2022-10-17T07:17:35.389Z,14.50
2022-10-17T07:18:37.350Z,14.60
2022-10-17T07:19:38.898Z,14.70
2022-10-17T07:20:42.547Z,14.70
2022-10-17T07:21:44.123Z,14.70
2022-10-17T07:22:46.565Z,14.70
2022-10-17T07:23:47.980Z,14.70
2022-10-17T07:26:09.503Z,14.70
2022-10-17T07:27:13.669Z,14.80
2022-10-17T07:28:15.939Z,14.90
2022-10-17T07:29:17.547Z,14.90
2022-10-17T07:30:29.030Z,15.00
2022-10-17T07:31:42.258Z,15.00
2022-10-17T07:32:44.267Z,15.10
2022-10-17T07:34:48.308Z,15.20
2022-10-17T07:35:52.191Z,15.30
2022-10-17T07:36:54.206Z,15.30
2022-10-17T07:37:55.610Z,15.40
2022-10-17T07:38:57.213Z,15.40
2022-10-17T07:40:00.263Z,15.40
2022-10-17T07:41:04.751Z,15.50
2022-10-17T07:42:07.753Z,15.50
2022-10-17T07:43:09.551Z,15.60
2022-10-17T07:44:11.894Z,15.60
2022-10-17T07:45:20.103Z,15.70
2022-10-17T07:46:21.673Z,15.80
2022-10-17T07:47:23.278Z,15.80
2022-10-17T07:48:25.682Z,15.90
2022-10-17T07:49:27.248Z,16.00
2022-10-17T07:50:29.253Z,16.10
2022-10-17T07:51:30.686Z,16.10
2022-10-17T07:52:32.415Z,16.20
2022-10-17T07:53:38.613Z,16.30
2022-10-17T07:54:40.832Z,16.40
2022-10-17T07:55:42.881Z,16.40
2022-10-17T07:56:50.239Z,16.50
2022-10-17T07:57:51.657Z,16.50
2022-10-17T07:58:53.787Z,16.60
2022-10-17T07:59:55.300Z,16.60
2022-10-17T08:02:09.209Z,16.70
2022-10-17T08:03:11.429Z,16.80
2022-10-17T08:04:13.019Z,16.80
2022-10-17T08:05:14.440Z,16.90
2022-10-17T08:06:16.213Z,17.00
2022-10-17T08:07:23.033Z,17.00
2022-10-17T08:08:26.980Z,17.10
2022-10-17T08:09:28.354Z,17.10
2022-10-17T08:10:30.025Z,17.20
2022-10-17T08:11:31.507Z,17.20
2022-10-17T08:12:34.358Z,17.20
2022-10-17T08:13:36.739Z,17.20
2022-10-17T08:14:39.500Z,17.30
2022-10-17T08:15:40.994Z,17.30
2022-10-17T08:16:42.888Z,17.30
2022-10-17T08:17:44.235Z,17.40
2022-10-17T08:18:45.716Z,17.40
2022-10-17T08:19:47.085Z,17.40
2022-10-17T08:20:48.680Z,17.40
2022-10-17T08:21:50.335Z,17.40
2022-10-17T08:22:53.354Z,17.50
2022-10-17T08:23:54.936Z,17.50
2022-10-17T08:24:56.307Z,17.60
2022-10-17T08:26:01.883Z,17.60
2022-10-17T08:27:04.831Z,17.70
2022-10-17T08:29:16.689Z,17.80
2022-10-17T08:30:18.242Z,17.80
2022-10-17T08:31:20.571Z,17.90
2022-10-17T08:32:25.724Z,17.90
2022-10-17T08:33:27.090Z,18.00
2022-10-17T08:34:29.098Z,18.00
2022-10-17T08:35:30.477Z,18.10
2022-10-17T08:36:31.966Z,18.10
2022-10-17T08:37:34.257Z,18.10
2022-10-17T08:38:41.435Z,18.10
2022-10-17T08:39:45.214Z,18.20
2022-10-17T08:40:49.509Z,18.20
2022-10-17T08:41:57.095Z,18.20
2022-10-17T08:43:05.715Z,18.30
2022-10-17T08:44:32.008Z,18.30
2022-10-17T08:45:50.703Z,18.40
2022-10-17T08:46:57.044Z,18.50
2022-10-17T08:48:01.322Z,18.50
2022-10-17T08:49:08.735Z,18.50
2022-10-17T08:50:33.666Z,18.60
2022-10-17T08:51:39.835Z,18.60
2022-10-17T08:53:06.201Z,18.70
2022-10-17T08:54:15.239Z,18.70
2022-10-17T08:55:22.920Z,18.70
2022-10-17T08:56:48.869Z,18.80
2022-10-17T08:57:50.814Z,18.90
2022-10-17T08:58:52.879Z,18.90
2022-10-17T08:59:55.167Z,18.90
2022-10-17T09:01:08.010Z,19.00
2022-10-17T09:02:46.327Z,19.00
2022-10-17T09:04:18.017Z,19.10
2022-10-17T09:05:55.286Z,19.10
2022-10-17T09:07:02.586Z,19.20
2022-10-17T09:08:04.026Z,19.20
2022-10-17T09:09:39.255Z,19.20
2022-10-17T09:10:57.391Z,19.30
2022-10-17T09:12:13.611Z,19.30
2022-10-17T09:13:27.066Z,19.30
2022-10-17T09:14:40.844Z,19.30
2022-10-17T09:15:42.236Z,19.30
2022-10-17T09:17:09.335Z,19.30
2022-10-17T09:18:22.145Z,19.30
2022-10-17T09:19:29.838Z,19.40
2022-10-17T09:20:36.580Z,19.30
2022-10-17T09:21:51.567Z,19.30
2022-10-17T09:23:08.486Z,19.30
2022-10-17T09:24:27.920Z,19.40
2022-10-17T09:25:33.447Z,19.40
2022-10-17T09:26:35.034Z,19.50
2022-10-17T09:27:44.399Z,19.50
2022-10-17T09:28:52.373Z,19.60
2022-10-17T09:30:40.183Z,19.60
2022-10-17T09:31:51.865Z,19.70
2022-10-17T09:32:53.960Z,19.80
2022-10-17T09:33:58.006Z,19.80
2022-10-17T09:34:59.420Z,19.80
2022-10-17T09:36:03.378Z,19.80
2022-10-17T09:37:15.041Z,19.80
2022-10-17T09:38:20.063Z,19.80
2022-10-17T09:39:29.155Z,19.80
2022-10-17T09:40:35.356Z,19.80
2022-10-17T09:41:47.549Z,19.80
2022-10-17T09:42:51.408Z,19.90
2022-10-17T09:43:57.115Z,19.90
2022-10-17T09:45:18.523Z,19.80
2022-10-17T09:46:34.204Z,19.90
2022-10-17T09:47:45.815Z,19.80
2022-10-17T09:49:04.780Z,19.90
2022-10-17T09:50:35.038Z,19.90
2022-10-17T09:51:38.989Z,20.10
2022-10-17T09:52:47.581Z,20.10
2022-10-17T09:53:55.108Z,20.20
2022-10-17T09:55:04.018Z,20.20
2022-10-17T09:56:12.807Z,20.30
2022-10-17T09:57:16.007Z,20.40
2022-10-17T09:58:17.546Z,20.40
2022-10-17T09:59:35.329Z,20.40
2022-10-17T10:00:38.522Z,20.50
2022-10-17T10:01:40.057Z,20.50
2022-10-17T10:02:41.501Z,20.60
2022-10-17T10:03:42.894Z,20.60
2022-10-17T10:05:04.157Z,20.50
2022-10-17T10:06:12.523Z,20.60
2022-10-17T10:07:14.083Z,20.60
2022-10-17T10:08:17.711Z,20.70
2022-10-17T10:09:25.888Z,20.70
2022-10-17T10:10:29.537Z,20.60
2022-10-17T10:11:50.825Z,20.60
2022-10-17T10:13:18.329Z,20.60
2022-10-17T10:14:24.376Z,20.60
2022-10-17T10:15:43.737Z,20.70
2022-10-17T10:16:47.438Z,20.60
2022-10-17T10:17:49.199Z,20.70
2022-10-17T10:18:51.754Z,20.80
2022-10-17T10:19:53.892Z,20.80
2022-10-17T10:21:17.744Z,20.80
2022-10-17T10:22:23.536Z,20.80
2022-10-17T10:23:25.208Z,20.90
2022-10-17T10:24:30.839Z,21.00
2022-10-17T10:25:33.759Z,21.00
2022-10-17T10:26:46.682Z,21.00
2022-10-17T10:27:48.165Z,21.00
2022-10-17T10:29:06.479Z,21.10
2022-10-17T10:30:19.022Z,21.00
2022-10-17T10:31:28.661Z,21.00
2022-10-17T10:32:33.809Z,21.10
2022-10-17T10:33:41.785Z,21.10
2022-10-17T10:34:53.266Z,21.00
2022-10-17T10:36:05.167Z,21.10
2022-10-17T10:37:17.827Z,21.10
2022-10-17T10:38:21.142Z,21.10
2022-10-17T10:39:39.929Z,21.20
2022-10-17T10:40:51.038Z,21.20
2022-10-17T10:41:52.820Z,21.30
2022-10-17T10:43:04.871Z,21.20
2022-10-17T10:44:06.454Z,21.30
2022-10-17T10:45:46.407Z,21.30
2022-10-17T10:46:42.965Z,21.30
2022-10-17T10:47:54.924Z,21.30
2022-10-17T10:48:59.618Z,21.40
2022-10-17T10:50:28.872Z,21.40
2022-10-17T10:51:42.598Z,21.50
2022-10-17T10:52:50.640Z,21.50
2022-10-17T10:54:13.030Z,21.50
2022-10-17T10:55:34.384Z,21.50
2022-10-17T10:56:44.088Z,21.60
2022-10-17T10:57:49.173Z,21.70
2022-10-17T10:59:10.406Z,21.70
2022-10-17T11:00:20.740Z,21.80
2022-10-17T11:01:28.333Z,21.80
2022-10-17T11:02:35.841Z,21.80
2022-10-17T11:04:08.077Z,21.90
2022-10-17T11:05:21.858Z,21.90
2022-10-17T11:06:28.460Z,22.10
2022-10-17T11:07:45.854Z,22.10
2022-10-17T11:09:06.314Z,22.20
2022-10-17T11:10:28.212Z,22.20
2022-10-17T11:11:39.223Z,22.20
2022-10-17T11:12:55.477Z,22.20
2022-10-17T11:14:03.772Z,22.20
2022-10-17T11:15:17.230Z,22.20
2022-10-17T11:16:26.328Z,22.30
2022-10-17T11:17:36.374Z,22.30
2022-10-17T11:18:50.390Z,22.30
2022-10-17T11:20:20.061Z,22.40
2022-10-17T11:22:49.777Z,22.50
2022-10-17T11:24:05.650Z,22.50
2022-10-17T11:25:12.682Z,22.60
2022-10-17T11:26:27.856Z,22.60
2022-10-17T11:27:30.774Z,22.60
2022-10-17T11:28:32.571Z,22.60
2022-10-17T11:29:42.120Z,22.70
2022-10-17T11:30:56.466Z,22.70
2022-10-17T11:32:03.686Z,22.70
2022-10-17T11:33:06.068Z,22.70
2022-10-17T11:34:19.546Z,22.70
2022-10-17T11:35:36.546Z,22.70
2022-10-17T11:36:42.660Z,22.70
2022-10-17T11:37:49.990Z,22.70
2022-10-17T11:39:04.174Z,22.80
2022-10-17T11:40:38.386Z,22.80
2022-10-17T11:41:44.945Z,22.80
2022-10-17T11:43:01.651Z,22.80
2022-10-17T11:44:13.388Z,22.80
2022-10-17T11:45:20.277Z,22.80
2022-10-17T11:46:24.577Z,22.80
2022-10-17T11:47:34.651Z,22.80
2022-10-17T11:48:42.378Z,22.80
2022-10-17T11:52:57.306Z,22.80
2022-10-17T11:54:15.097Z,22.90
2022-10-17T11:55:19.844Z,22.90
2022-10-17T11:56:58.403Z,22.90
2022-10-17T11:58:30.618Z,23.00
2022-10-17T12:00:00.462Z,22.90
2022-10-17T12:01:19.747Z,22.90
2022-10-17T12:02:47.389Z,23.00
2022-10-17T12:03:57.074Z,23.10
2022-10-17T12:05:22.377Z,23.10
2022-10-17T12:06:35.480Z,23.20
2022-10-17T12:07:45.780Z,23.20
2022-10-17T12:08:58.958Z,23.20
2022-10-17T12:10:20.942Z,23.20
2022-10-17T12:11:54.071Z,23.20
2022-10-17T12:12:55.704Z,23.20
2022-10-17T12:13:57.190Z,23.30
2022-10-17T12:15:13.896Z,23.30
2022-10-17T12:16:35.585Z,23.30
2022-10-17T12:17:40.474Z,23.40
2022-10-17T12:18:41.953Z,23.50
2022-10-17T12:19:43.728Z,23.50
2022-10-17T12:20:57.314Z,23.50
2022-10-17T12:22:20.860Z,23.50
2022-10-17T12:23:27.465Z,23.60
2022-10-17T12:24:44.015Z,23.50
2022-10-17T12:25:56.959Z,23.50
2022-10-17T12:27:23.842Z,23.50
2022-10-17T12:28:37.994Z,23.60
2022-10-17T12:29:39.468Z,23.70
2022-10-17T12:30:57.578Z,23.60
2022-10-17T12:32:12.574Z,23.70
2022-10-17T12:33:23.741Z,23.70
2022-10-17T12:34:25.506Z,23.80
2022-10-17T12:35:28.798Z,23.90
2022-10-17T12:36:30.454Z,23.90
2022-10-17T12:37:50.861Z,23.90
2022-10-17T12:39:18.326Z,23.90
2022-10-17T12:40:37.898Z,24.00
2022-10-17T12:41:39.643Z,24.00
2022-10-17T12:42:50.042Z,24.10
2022-10-17T12:43:55.220Z,24.10
2022-10-17T12:44:56.868Z,24.10
2022-10-17T12:46:00.370Z,24.10
2022-10-17T12:47:11.176Z,24.10
2022-10-17T12:48:12.883Z,24.20
2022-10-17T12:49:43.746Z,24.10
2022-10-17T12:51:30.810Z,24.10
2022-10-17T12:52:32.404Z,24.10
2022-10-17T12:54:07.102Z,24.20
2022-10-17T12:55:14.410Z,24.20
2022-10-17T12:56:31.241Z,24.20
2022-10-17T12:57:33.113Z,24.30
2022-10-17T12:58:35.806Z,24.30
2022-10-17T12:59:37.661Z,24.30
2022-10-17T13:01:22.449Z,24.40
2022-10-17T13:02:20.692Z,24.40
2022-10-17T13:03:28.846Z,24.40
2022-10-17T13:04:31.784Z,24.30
2022-10-17T13:05:37.015Z,24.40
2022-10-17T13:06:48.267Z,24.50
2022-10-17T13:07:51.787Z,24.60
2022-10-17T13:09:06.683Z,24.50
2022-10-17T13:10:22.299Z,24.60
2022-10-17T13:11:32.360Z,24.60
2022-10-17T13:12:41.002Z,24.50
2022-10-17T13:13:52.442Z,24.60
2022-10-17T13:14:55.010Z,24.60
2022-10-17T13:15:56.512Z,24.50
2022-10-17T13:17:03.496Z,24.50
2022-10-17T13:18:05.317Z,24.50
2022-10-17T13:19:15.165Z,24.40
2022-10-17T13:20:27.527Z,24.40
2022-10-17T13:21:31.909Z,24.40
2022-10-17T13:22:33.567Z,24.50
2022-10-17T13:23:36.931Z,24.60
2022-10-17T13:24:40.069Z,24.60
2022-10-17T13:25:41.718Z,24.60
2022-10-17T13:26:45.945Z,24.60
2022-10-17T13:27:49.149Z,24.60
2022-10-17T13:30:32.520Z,24.60
2022-10-17T13:31:42.612Z,24.70
2022-10-17T13:32:45.593Z,24.70
2022-10-17T13:33:47.122Z,24.70
2022-10-17T13:35:07.206Z,24.70
2022-10-17T13:36:15.674Z,24.70
2022-10-17T13:37:17.150Z,24.70
2022-10-17T13:38:28.821Z,24.60
2022-10-17T13:41:10.879Z,24.60
2022-10-17T13:42:27.487Z,24.50
2022-10-17T13:43:31.879Z,24.40
2022-10-17T13:44:34.714Z,24.50
2022-10-17T13:45:38.154Z,24.40
2022-10-17T13:46:40.045Z,24.30
2022-10-17T13:47:41.637Z,24.40
2022-10-17T13:48:43.565Z,24.40
2022-10-17T13:49:45.390Z,24.30
2022-10-17T13:50:50.368Z,24.30
2022-10-17T13:51:53.981Z,24.20
2022-10-17T13:53:17.753Z,24.20
2022-10-17T13:54:37.919Z,24.10
2022-10-17T13:55:39.296Z,24.00
2022-10-17T13:56:40.806Z,24.00
2022-10-17T13:57:42.262Z,24.00
2022-10-17T13:58:45.365Z,23.90
2022-10-17T13:59:50.131Z,23.80
2022-10-17T14:00:52.729Z,23.80
2022-10-17T14:01:55.852Z,23.70
2022-10-17T14:02:57.752Z,23.60
2022-10-17T14:04:20.198Z,23.60
2022-10-17T14:05:23.876Z,23.50
2022-10-17T14:06:30.129Z,23.50
2022-10-17T14:07:58.051Z,23.50
2022-10-17T14:09:02.599Z,23.40
2022-10-17T14:10:06.346Z,23.20
2022-10-17T14:11:23.887Z,23.10
2022-10-17T14:12:25.353Z,23.10
2022-10-17T14:13:34.010Z,23.00
2022-10-17T14:14:52.004Z,23.00
2022-10-17T14:16:03.958Z,23.00
2022-10-17T14:17:21.769Z,22.80
2022-10-17T14:18:36.568Z,22.80
2022-10-17T14:19:38.349Z,22.60
2022-10-17T14:21:28.772Z,22.50
2022-10-17T14:22:15.799Z,22.50
2022-10-17T14:23:36.673Z,22.40
2022-10-17T14:24:39.684Z,22.30
2022-10-17T14:25:41.466Z,22.40
2022-10-17T14:27:30.798Z,22.20
2022-10-17T14:28:32.503Z,22.10
2022-10-17T14:29:51.684Z,21.90
2022-10-17T14:30:57.447Z,21.90
2022-10-17T14:32:11.249Z,21.80
2022-10-17T14:33:24.481Z,21.70
2022-10-17T14:34:31.100Z,21.80
2022-10-17T14:35:41.862Z,21.60
2022-10-17T14:36:52.431Z,21.50
2022-10-17T14:37:58.863Z,21.40
2022-10-17T14:39:01.953Z,21.40
2022-10-17T14:40:05.852Z,21.30
2022-10-17T14:42:40.125Z,21.10
2022-10-17T14:43:41.936Z,21.00
2022-10-17T14:44:52.903Z,21.00
2022-10-17T14:45:58.311Z,21.00
2022-10-17T14:47:30.275Z,21.00
2022-10-17T14:48:29.278Z,20.90
2022-10-17T14:49:39.395Z,20.90
2022-10-17T14:50:43.437Z,20.80
2022-10-17T14:52:28.853Z,20.80
2022-10-17T14:53:30.828Z,20.90